createdAt,value
2023-05-21T00:01:40.069Z,13.90
2023-05-21T00:04:12.597Z,13.85
2023-05-21T00:06:39.856Z,13.78
2023-05-21T00:09:07.391Z,13.73
2023-05-21T00:11:34.807Z,13.66
2023-05-21T00:14:02.121Z,13.59
2023-05-21T00:16:29.587Z,13.51
2023-05-21T00:18:58.405Z,13.46
2023-05-21T00:21:26.746Z,13.43
2023-05-21T00:23:57.344Z,13.38
2023-05-21T00:26:24.771Z,13.35
2023-05-21T00:28:56.321Z,13.35
2023-05-21T00:31:23.590Z,13.27
2023-05-21T00:33:51.015Z,13.22
2023-05-21T00:36:18.407Z,13.18
2023-05-21T00:38:46.306Z,13.13
2023-05-21T00:41:13.960Z,13.14
2023-05-21T00:43:42.560Z,13.06
2023-05-21T00:46:14.346Z,13.04
2023-05-21T00:48:41.461Z,12.98
2023-05-21T00:51:08.810Z,12.97
2023-05-21T00:53:36.530Z,12.90
2023-05-21T00:56:03.967Z,12.85
2023-05-21T00:58:33.851Z,12.77
2023-05-21T01:01:04.072Z,12.71
2023-05-21T01:03:31.496Z,12.70
2023-05-21T01:06:01.091Z,12.65
2023-05-21T01:08:29.077Z,12.62
2023-05-21T01:10:57.284Z,12.52
2023-05-21T01:13:25.196Z,12.47
2023-05-21T01:15:54.135Z,12.43
2023-05-21T01:18:22.739Z,12.43
2023-05-21T01:20:50.571Z,12.31
2023-05-21T01:23:18.252Z,12.37
2023-05-21T01:25:45.929Z,12.38
2023-05-21T01:28:13.625Z,12.37
2023-05-21T01:30:42.973Z,12.35
2023-05-21T01:33:13.538Z,12.33
2023-05-21T01:36:07.915Z,12.33
2023-05-21T01:38:43.340Z,12.27
2023-05-21T01:41:14.788Z,12.27
2023-05-21T01:43:44.683Z,12.23
2023-05-21T01:46:14.805Z,12.26
2023-05-21T01:48:42.526Z,12.29
2023-05-21T01:51:10.090Z,12.30
2023-05-21T01:53:39.390Z,12.31
2023-05-21T01:56:06.936Z,12.30
2023-05-21T01:58:34.578Z,12.28
2023-05-21T02:01:03.590Z,12.24
2023-05-21T02:03:31.796Z,12.21
2023-05-21T02:05:59.581Z,12.21
2023-05-21T02:08:27.936Z,12.20
2023-05-21T02:10:55.487Z,12.18
2023-05-21T02:13:25.987Z,12.17
2023-05-21T02:15:55.235Z,12.13
2023-05-21T02:18:23.965Z,12.12
2023-05-21T02:20:51.620Z,12.11
2023-05-21T02:23:18.749Z,12.09
2023-05-21T02:25:45.994Z,12.08
2023-05-21T02:28:13.223Z,12.01
2023-05-21T02:30:40.438Z,12.01
2023-05-21T02:33:09.488Z,11.93
2023-05-21T02:35:37.431Z,11.95
2023-05-21T02:38:05.125Z,11.94
2023-05-21T02:40:33.519Z,11.91
2023-05-21T02:43:01.249Z,11.91
2023-05-21T02:45:31.382Z,11.88
2023-05-21T02:47:58.952Z,11.87
2023-05-21T02:50:26.377Z,11.89
2023-05-21T02:53:00.462Z,11.88
2023-05-21T02:55:28.739Z,11.88
2023-05-21T02:57:56.294Z,11.85
2023-05-21T03:00:23.448Z,11.83
2023-05-21T03:02:51.182Z,11.80
2023-05-21T03:05:18.362Z,11.74
2023-05-21T03:07:45.541Z,11.70
2023-05-21T03:10:12.797Z,11.60
2023-05-21T03:12:39.837Z,11.58
2023-05-21T03:15:07.222Z,11.53
2023-05-21T03:17:34.669Z,11.53
2023-05-21T03:20:01.915Z,11.52
2023-05-21T03:22:29.256Z,11.52
2023-05-21T03:24:56.646Z,11.57
2023-05-21T03:27:24.070Z,11.59
2023-05-21T03:29:52.530Z,11.63
2023-05-21T03:32:19.905Z,11.62
2023-05-21T03:34:49.574Z,11.56
2023-05-21T03:37:19.147Z,11.58
2023-05-21T03:39:46.588Z,11.64
2023-05-21T03:42:14.621Z,11.63
2023-05-21T03:44:46.929Z,11.61
2023-05-21T03:47:49.959Z,11.58
2023-05-21T03:50:17.820Z,11.52
2023-05-21T03:52:45.566Z,11.52
2023-05-21T03:55:12.712Z,11.54
2023-05-21T03:57:40.792Z,11.58
2023-05-21T04:00:09.822Z,11.62
2023-05-21T04:02:42.927Z,11.60
2023-05-21T04:05:11.899Z,11.62
2023-05-21T04:07:40.073Z,11.61
2023-05-21T04:10:08.116Z,11.58
2023-05-21T04:12:35.373Z,11.61
2023-05-21T04:15:04.682Z,11.60
2023-05-21T04:17:32.054Z,11.59
2023-05-21T04:19:59.578Z,11.56
2023-05-21T04:22:29.829Z,11.51
2023-05-21T04:24:57.737Z,11.53
2023-05-21T04:27:29.047Z,11.54
2023-05-21T04:29:58.334Z,11.53
2023-05-21T04:32:25.554Z,11.58
2023-05-21T04:34:52.684Z,11.54
2023-05-21T04:37:20.088Z,11.54
2023-05-21T04:39:47.307Z,11.54
2023-05-21T04:42:14.860Z,11.55
2023-05-21T04:44:44.946Z,11.61
2023-05-21T04:47:17.435Z,11.64
2023-05-21T04:49:48.020Z,11.62
2023-05-21T04:52:15.675Z,11.65
2023-05-21T04:54:43.483Z,11.49
2023-05-21T04:57:14.316Z,11.72
2023-05-21T04:59:48.475Z,11.78
2023-05-21T05:02:17.747Z,11.80
2023-05-21T05:04:51.345Z,11.81
2023-05-21T05:07:22.842Z,11.85
2023-05-21T05:09:52.051Z,11.89
2023-05-21T05:12:23.159Z,11.87
2023-05-21T05:14:54.426Z,11.90
2023-05-21T05:17:25.744Z,11.93
2023-05-21T05:19:55.256Z,11.93
2023-05-21T05:22:27.310Z,11.99
2023-05-21T05:24:55.873Z,12.04
2023-05-21T05:27:23.714Z,12.10
2023-05-21T05:29:50.992Z,12.08
2023-05-21T05:32:18.546Z,12.06
2023-05-21T05:34:47.022Z,12.07
2023-05-21T05:37:14.783Z,12.09
2023-05-21T05:39:42.098Z,12.12
2023-05-21T05:42:09.247Z,12.16
2023-05-21T05:44:36.252Z,12.21
2023-05-21T05:47:04.214Z,12.27
2023-05-21T05:49:32.723Z,12.31
2023-05-21T05:52:02.310Z,12.38
2023-05-21T05:54:35.009Z,12.44
2023-05-21T05:57:03.538Z,12.44
2023-05-21T05:59:37.791Z,12.47
2023-05-21T06:02:28.120Z,12.55
2023-05-21T06:05:13.837Z,12.57
2023-05-21T06:07:45.010Z,12.66
2023-05-21T06:10:24.975Z,12.74
2023-05-21T06:12:53.671Z,12.78
2023-05-21T06:15:56.375Z,12.85
2023-05-21T06:18:20.629Z,12.91
2023-05-21T06:20:48.533Z,12.96
2023-05-21T06:23:17.238Z,13.03
2023-05-21T06:25:46.158Z,13.09
2023-05-21T06:28:13.678Z,13.17
2023-05-21T06:30:40.812Z,13.21
2023-05-21T06:33:08.502Z,13.26
2023-05-21T06:35:38.094Z,13.32
2023-05-21T06:38:05.868Z,13.40
2023-05-21T06:40:32.955Z,13.48
2023-05-21T06:43:00.619Z,13.55
2023-05-21T06:45:37.260Z,13.62
2023-05-21T06:48:41.306Z,13.66
2023-05-21T06:51:08.678Z,13.75
2023-05-21T06:53:54.225Z,13.83
2023-05-21T06:56:36.154Z,13.88
2023-05-21T06:59:03.505Z,13.91
2023-05-21T07:01:31.205Z,14.03
2023-05-21T07:03:58.589Z,14.18
2023-05-21T07:06:25.988Z,14.27
2023-05-21T07:08:53.634Z,14.35
2023-05-21T07:11:21.603Z,14.38
2023-05-21T07:13:48.861Z,14.34
2023-05-21T07:16:18.311Z,14.46
2023-05-21T07:18:48.300Z,14.45
2023-05-21T07:21:15.929Z,14.48
2023-05-21T07:23:43.385Z,14.54
2023-05-21T07:26:10.978Z,14.51
2023-05-21T07:28:38.585Z,14.57
2023-05-21T07:31:05.974Z,14.58
2023-05-21T07:33:39.439Z,14.60
2023-05-21T07:36:09.198Z,14.68
2023-05-21T07:38:36.656Z,14.73
2023-05-21T07:41:04.232Z,14.78
2023-05-21T07:43:36.531Z,14.77
2023-05-21T07:46:04.038Z,14.78
2023-05-21T07:48:32.144Z,14.81
2023-05-21T07:51:02.123Z,14.86
2023-05-21T07:53:32.553Z,14.96
2023-05-21T07:56:06.049Z,14.96
2023-05-21T07:58:35.372Z,14.86
2023-05-21T08:01:03.393Z,14.88
2023-05-21T08:03:32.639Z,14.83
2023-05-21T08:06:00.441Z,14.79
2023-05-21T08:08:27.851Z,14.75
2023-05-21T08:10:57.438Z,14.74
2023-05-21T08:13:27.278Z,14.72
2023-05-21T08:15:55.532Z,14.80
2023-05-21T08:18:24.085Z,14.74
2023-05-21T08:20:53.662Z,14.71
2023-05-21T08:23:21.893Z,14.73
2023-05-21T08:25:53.907Z,14.92
2023-05-21T08:28:23.997Z,14.85
2023-05-21T08:30:52.333Z,14.89
2023-05-21T08:33:21.090Z,14.99
2023-05-21T08:35:49.790Z,15.08
2023-05-21T08:38:30.568Z,15.14
2023-05-21T08:41:23.330Z,15.07
2023-05-21T08:43:56.119Z,15.14
2023-05-21T08:46:24.184Z,15.08
2023-05-21T08:48:55.357Z,15.12
2023-05-21T08:51:24.370Z,15.21
2023-05-21T08:53:53.228Z,15.21
2023-05-21T08:56:21.619Z,15.21
2023-05-21T08:58:54.444Z,15.53
2023-05-21T09:01:26.458Z,15.52
2023-05-21T09:04:19.556Z,15.51
2023-05-21T09:06:50.706Z,15.48
2023-05-21T09:09:34.759Z,15.49
2023-05-21T09:12:02.418Z,15.53
2023-05-21T09:14:29.948Z,15.77
2023-05-21T09:17:14.198Z,15.73
2023-05-21T09:20:01.312Z,15.79
2023-05-21T09:22:29.621Z,15.75
2023-05-21T09:24:59.247Z,15.72
2023-05-21T09:27:27.024Z,15.89
2023-05-21T09:29:54.456Z,15.85
2023-05-21T09:32:21.641Z,15.90
2023-05-21T09:34:50.567Z,15.93
2023-05-21T09:37:27.003Z,16.07
2023-05-21T09:39:57.390Z,16.13
2023-05-21T09:42:24.837Z,16.10
2023-05-21T09:44:51.984Z,16.31
2023-05-21T09:47:20.678Z,16.29
2023-05-21T09:49:47.802Z,16.22
2023-05-21T09:52:24.487Z,16.35
2023-05-21T09:54:52.230Z,16.34
2023-05-21T09:57:26.724Z,16.43
2023-05-21T09:59:54.706Z,16.60
2023-05-21T10:02:23.443Z,16.55
2023-05-21T10:04:51.548Z,16.53
2023-05-21T10:07:19.717Z,16.51
2023-05-21T10:09:47.918Z,16.53
2023-05-21T10:12:18.447Z,16.59
2023-05-21T10:14:47.425Z,16.48
2023-05-21T10:17:15.905Z,16.52
2023-05-21T10:19:47.071Z,16.42
2023-05-21T10:22:14.620Z,16.46
2023-05-21T10:24:43.251Z,16.42
2023-05-21T10:27:12.281Z,16.41
2023-05-21T10:29:42.209Z,16.32
2023-05-21T10:32:10.645Z,16.35
2023-05-21T10:34:38.670Z,16.25
2023-05-21T10:37:08.515Z,16.22
2023-05-21T10:39:41.733Z,16.33
2023-05-21T10:42:25.174Z,16.23
2023-05-21T10:45:04.703Z,16.15
2023-05-21T10:47:54.652Z,16.11
2023-05-21T10:50:25.720Z,16.19
2023-05-21T10:53:02.980Z,16.22
2023-05-21T10:55:33.250Z,16.44
2023-05-21T10:58:10.113Z,16.52
2023-05-21T11:00:37.941Z,16.66
2023-05-21T11:03:06.016Z,16.86
2023-05-21T11:05:40.679Z,16.71
2023-05-21T11:08:28.106Z,16.76
2023-05-21T11:10:58.503Z,16.96
2023-05-21T11:13:26.698Z,17.18
2023-05-21T11:16:00.335Z,17.05
2023-05-21T11:18:38.090Z,17.17
2023-05-21T11:21:06.588Z,17.36
2023-05-21T11:23:52.186Z,17.31
2023-05-21T11:26:19.970Z,17.52
2023-05-21T11:28:47.198Z,17.61
2023-05-21T11:31:25.440Z,17.61
2023-05-21T11:34:11.421Z,17.80
2023-05-21T11:36:39.254Z,17.76
2023-05-21T11:39:13.382Z,17.82
2023-05-21T11:42:02.440Z,17.82
2023-05-21T11:44:44.922Z,17.83
2023-05-21T11:47:12.876Z,17.86
2023-05-21T11:49:40.022Z,17.91
2023-05-21T11:52:08.321Z,18.11
2023-05-21T11:54:40.325Z,18.21
2023-05-21T11:57:08.568Z,18.23
2023-05-21T11:59:36.546Z,18.26
2023-05-21T12:02:04.281Z,18.41
2023-05-21T12:04:38.463Z,18.34
2023-05-21T12:07:07.585Z,18.45
2023-05-21T12:09:43.978Z,18.62
2023-05-21T12:12:13.128Z,18.67
2023-05-21T12:14:40.773Z,18.62
2023-05-21T12:17:10.857Z,18.59
2023-05-21T12:19:38.132Z,18.55
2023-05-21T12:22:05.902Z,18.68
2023-05-21T12:24:33.712Z,18.80
2023-05-21T12:27:02.076Z,18.83
2023-05-21T12:29:30.614Z,18.92
2023-05-21T12:32:01.911Z,18.85
2023-05-21T12:34:55.020Z,18.88
2023-05-21T12:37:23.801Z,18.99
2023-05-21T12:39:52.178Z,19.04
2023-05-21T12:42:31.614Z,19.05
2023-05-21T12:44:58.740Z,19.03
2023-05-21T12:47:27.252Z,19.02
2023-05-21T12:49:58.146Z,18.89
2023-05-21T12:52:25.580Z,19.06
2023-05-21T12:55:00.033Z,18.98
2023-05-21T12:57:28.687Z,18.99
2023-05-21T13:00:00.731Z,18.91
2023-05-21T13:02:41.653Z,18.87
2023-05-21T13:05:10.722Z,18.81
2023-05-21T13:07:40.184Z,18.37
2023-05-21T13:10:11.753Z,18.72
2023-05-21T13:13:00.641Z,18.70
2023-05-21T13:15:38.877Z,18.61
2023-05-21T13:18:06.274Z,18.58
2023-05-21T13:20:33.325Z,18.47
2023-05-21T13:23:01.268Z,18.42
2023-05-21T13:25:30.121Z,18.58
2023-05-21T13:27:57.938Z,18.53
2023-05-21T13:30:25.055Z,18.47
2023-05-21T13:32:52.779Z,18.44
2023-05-21T13:35:20.243Z,18.49
2023-05-21T13:37:47.485Z,18.65
2023-05-21T13:40:15.910Z,18.50
2023-05-21T13:42:46.815Z,18.60
2023-05-21T13:45:16.422Z,18.66
2023-05-21T13:47:44.473Z,18.69
2023-05-21T13:50:12.042Z,18.69
2023-05-21T13:52:39.150Z,18.77
2023-05-21T13:55:07.254Z,18.79
2023-05-21T13:57:34.593Z,18.87
2023-05-21T14:00:02.058Z,18.93
2023-05-21T14:02:34.942Z,18.87
2023-05-21T14:05:02.245Z,18.88
2023-05-21T14:07:29.611Z,18.85
2023-05-21T14:09:57.197Z,18.84
2023-05-21T14:12:24.279Z,18.95
2023-05-21T14:14:53.126Z,18.97
2023-05-21T14:17:20.394Z,19.01
2023-05-21T14:19:50.646Z,19.07
2023-05-21T14:22:18.220Z,18.94
2023-05-21T14:24:47.525Z,19.00
2023-05-21T14:27:15.992Z,19.01
2023-05-21T14:29:44.136Z,18.88
2023-05-21T14:32:11.337Z,18.81
2023-05-21T14:34:39.551Z,18.83
2023-05-21T14:37:06.868Z,18.77
2023-05-21T14:39:34.381Z,18.78
2023-05-21T14:42:03.452Z,18.76
2023-05-21T14:44:31.117Z,18.76
2023-05-21T14:46:58.440Z,18.72
2023-05-21T14:49:25.662Z,18.74
2023-05-21T14:51:52.857Z,18.72
2023-05-21T14:54:29.128Z,18.61
2023-05-21T14:56:56.552Z,18.62
2023-05-21T14:59:24.205Z,18.59
2023-05-21T15:01:52.064Z,18.67
2023-05-21T15:04:19.637Z,18.66
2023-05-21T15:06:46.824Z,18.59
2023-05-21T15:09:13.859Z,18.66
2023-05-21T15:11:44.064Z,18.63
2023-05-21T15:14:11.394Z,18.58
2023-05-21T15:16:38.583Z,18.59
2023-05-21T15:19:05.957Z,18.65
2023-05-21T15:21:33.095Z,18.70
2023-05-21T15:24:00.411Z,18.72
2023-05-21T15:26:27.791Z,18.80
2023-05-21T15:28:55.204Z,18.79
2023-05-21T15:31:22.369Z,18.79
2023-05-21T15:33:49.414Z,18.76
2023-05-21T15:36:16.671Z,18.89
2023-05-21T15:38:45.221Z,18.87
2023-05-21T15:41:12.639Z,18.78
2023-05-21T15:43:40.015Z,18.79
2023-05-21T15:46:07.197Z,18.83
2023-05-21T15:48:34.187Z,18.71
2023-05-21T15:51:01.359Z,18.79
2023-05-21T15:53:28.654Z,18.80
2023-05-21T15:55:57.241Z,18.78
2023-05-21T15:58:24.833Z,18.72
2023-05-21T16:00:52.025Z,18.68
2023-05-21T16:03:19.663Z,18.74
2023-05-21T16:05:47.449Z,18.74
2023-05-21T16:08:15.632Z,18.67
2023-05-21T16:10:43.231Z,18.61
2023-05-21T16:13:12.804Z,18.51
2023-05-21T16:15:40.728Z,18.51
2023-05-21T16:18:10.649Z,18.48
2023-05-21T16:20:38.940Z,18.52
2023-05-21T16:23:06.909Z,18.47
2023-05-21T16:25:36.536Z,18.45
2023-05-21T16:28:03.931Z,18.34
2023-05-21T16:30:30.973Z,18.39
2023-05-21T16:32:58.362Z,18.38
2023-05-21T16:35:26.646Z,18.39
2023-05-21T16:37:55.691Z,18.25
2023-05-21T16:40:23.208Z,18.24
2023-05-21T16:42:50.582Z,18.25
2023-05-21T16:45:24.102Z,18.25
2023-05-21T16:47:51.838Z,18.16
2023-05-21T16:50:22.275Z,18.13
2023-05-21T16:52:50.064Z,18.14
2023-05-21T16:55:17.387Z,18.14
2023-05-21T16:57:44.880Z,18.13
2023-05-21T17:00:12.560Z,18.08
2023-05-21T17:02:39.813Z,18.10
2023-05-21T17:05:07.242Z,18.14
2023-05-21T17:07:34.645Z,18.16
2023-05-21T17:10:02.010Z,18.07
2023-05-21T17:12:29.043Z,18.08
2023-05-21T17:14:58.704Z,18.06
2023-05-21T17:17:26.290Z,18.06
2023-05-21T17:19:54.022Z,18.04
2023-05-21T17:22:22.321Z,18.05
2023-05-21T17:25:05.854Z,18.03
2023-05-21T17:27:33.776Z,18.25
2023-05-21T17:30:01.200Z,18.12
2023-05-21T17:32:33.889Z,18.10
2023-05-21T17:35:04.745Z,18.23
2023-05-21T17:37:32.166Z,18.09
2023-05-21T17:39:59.309Z,18.19
2023-05-21T17:42:26.839Z,18.11
2023-05-21T17:44:55.217Z,18.13
2023-05-21T17:47:22.692Z,18.11
2023-05-21T17:49:50.719Z,18.00
2023-05-21T17:52:18.191Z,17.96
2023-05-21T17:54:45.758Z,18.02
2023-05-21T17:57:16.458Z,18.00
2023-05-21T17:59:45.663Z,17.91
2023-05-21T18:02:13.909Z,18.00
2023-05-21T18:04:41.297Z,17.96
2023-05-21T18:07:08.683Z,17.92
2023-05-21T18:09:36.469Z,17.88
2023-05-21T18:12:08.470Z,17.82
2023-05-21T18:14:35.930Z,17.79
2023-05-21T18:17:03.673Z,17.77
2023-05-21T18:19:31.887Z,17.76
2023-05-21T18:21:59.129Z,17.74
2023-05-21T18:24:26.301Z,17.76
2023-05-21T18:26:53.680Z,17.73
2023-05-21T18:29:23.913Z,17.71
2023-05-21T18:31:51.192Z,17.68
2023-05-21T18:34:19.143Z,17.66
2023-05-21T18:36:49.685Z,17.64
2023-05-21T18:39:16.983Z,17.58
2023-05-21T18:41:44.191Z,17.57
2023-05-21T18:44:11.371Z,17.54
2023-05-21T18:46:39.324Z,17.56
2023-05-21T18:49:06.565Z,17.60
2023-05-21T18:51:33.873Z,17.65
2023-05-21T18:54:01.075Z,17.50
2023-05-21T18:56:28.201Z,17.40
2023-05-21T18:58:56.593Z,17.38
2023-05-21T19:01:24.109Z,17.34
2023-05-21T19:03:51.252Z,17.30
2023-05-21T19:06:18.390Z,17.20
2023-05-21T19:08:46.555Z,17.24
2023-05-21T19:11:13.645Z,17.22
2023-05-21T19:13:40.807Z,17.15
2023-05-21T19:16:12.058Z,17.16
2023-05-21T19:18:43.401Z,17.09
2023-05-21T19:24:16.344Z,17.04
2023-05-21T19:26:43.706Z,17.04
2023-05-21T19:29:11.776Z,17.00
2023-05-21T19:31:39.801Z,16.94
2023-05-21T19:34:11.137Z,16.91
2023-05-21T19:36:51.598Z,16.96
2023-05-21T19:39:20.053Z,16.90
2023-05-21T19:41:47.341Z,16.84
2023-05-21T19:44:14.626Z,16.84
2023-05-21T19:46:50.826Z,16.83
2023-05-21T19:49:20.135Z,16.74
2023-05-21T19:51:49.308Z,16.72
2023-05-21T19:54:16.722Z,16.67
2023-05-21T19:56:47.014Z,16.65
2023-05-21T19:59:14.121Z,16.60
2023-05-21T20:01:43.546Z,16.60
2023-05-21T20:04:11.096Z,16.55
2023-05-21T20:06:38.514Z,16.56
2023-05-21T20:09:05.927Z,16.47
2023-05-21T20:11:33.494Z,16.42
2023-05-21T20:14:02.430Z,16.45
2023-05-21T20:16:30.371Z,16.41
2023-05-21T20:18:58.457Z,16.39
2023-05-21T20:21:33.686Z,16.31
2023-05-21T20:24:04.325Z,16.32
2023-05-21T20:26:42.045Z,16.38
2023-05-21T20:29:09.458Z,16.36
2023-05-21T20:31:37.100Z,16.34
2023-05-21T20:34:12.562Z,16.35
2023-05-21T20:36:43.854Z,16.34
2023-05-21T20:39:12.421Z,16.29
2023-05-21T20:41:40.185Z,16.29
2023-05-21T20:44:08.061Z,16.24
2023-05-21T20:46:39.101Z,16.25
2023-05-21T20:49:07.076Z,16.26
2023-05-21T20:51:35.548Z,16.27
2023-05-21T20:54:03.455Z,16.29
2023-05-21T20:56:42.131Z,16.26
2023-05-21T20:59:11.404Z,16.33
2023-05-21T21:01:41.656Z,16.31
2023-05-21T21:04:10.202Z,16.29
2023-05-21T21:06:39.113Z,16.28
2023-05-21T21:09:09.018Z,16.30
2023-05-21T21:11:36.844Z,16.31
2023-05-21T21:14:04.982Z,16.28
2023-05-21T21:16:33.670Z,16.25
2023-05-21T21:19:01.585Z,16.23
2023-05-21T21:21:28.974Z,16.22
2023-05-21T21:23:56.146Z,16.20
2023-05-21T21:26:23.771Z,16.21
2023-05-21T21:28:51.006Z,16.22
2023-05-21T21:31:18.068Z,16.24
2023-05-21T21:33:45.167Z,16.05
2023-05-21T21:36:15.238Z,16.19
2023-05-21T21:38:42.677Z,16.17
2023-05-21T21:41:10.053Z,16.22
2023-05-21T21:43:37.399Z,16.23
2023-05-21T21:46:04.584Z,16.24
2023-05-21T21:48:32.190Z,16.27
2023-05-21T21:50:59.399Z,16.28
2023-05-21T21:53:26.806Z,16.27
2023-05-21T21:55:56.472Z,16.25
2023-05-21T21:58:24.115Z,16.27
2023-05-21T22:00:51.621Z,16.23
2023-05-21T22:03:19.098Z,16.24
2023-05-21T22:05:46.581Z,16.19
2023-05-21T22:08:13.756Z,16.17
2023-05-21T22:10:40.948Z,16.17
2023-05-21T22:13:08.321Z,16.23
2023-05-21T22:15:35.786Z,16.30
2023-05-21T22:18:03.737Z,16.29
2023-05-21T22:20:31.253Z,16.25
2023-05-21T22:22:58.501Z,16.23
2023-05-21T22:25:26.257Z,16.21
2023-05-21T22:27:53.622Z,16.17
2023-05-21T22:30:20.954Z,16.19
2023-05-21T22:32:48.219Z,15.94
2023-05-21T22:35:15.312Z,16.09
2023-05-21T22:37:42.353Z,16.21
2023-05-21T22:40:09.775Z,16.16
2023-05-21T22:42:37.099Z,16.06
2023-05-21T22:45:04.829Z,16.07
2023-05-21T22:47:35.558Z,15.98
2023-05-21T22:50:04.667Z,15.97
2023-05-21T22:52:32.341Z,15.92
2023-05-21T22:55:00.824Z,15.88
2023-05-21T22:57:28.204Z,15.79
2023-05-21T22:59:55.381Z,15.75
2023-05-21T23:02:22.730Z,15.75
2023-05-21T23:04:49.896Z,15.72
2023-05-21T23:07:17.085Z,15.69
2023-05-21T23:09:44.630Z,15.67
2023-05-21T23:12:12.750Z,15.64
2023-05-21T23:14:39.849Z,15.62
2023-05-21T23:17:07.851Z,15.62
2023-05-21T23:19:35.098Z,15.57
2023-05-21T23:22:02.368Z,15.55
2023-05-21T23:24:29.811Z,15.56
2023-05-21T23:27:03.197Z,15.63
2023-05-21T23:29:30.888Z,15.70
2023-05-21T23:31:58.310Z,15.59
2023-05-21T23:34:26.035Z,15.53
2023-05-21T23:36:53.416Z,15.65
2023-05-21T23:39:21.261Z,15.52
2023-05-21T23:41:48.832Z,15.51
2023-05-21T23:44:16.338Z,15.46
2023-05-21T23:46:44.105Z,15.49
2023-05-21T23:49:11.865Z,15.51
2023-05-21T23:51:39.760Z,15.50
2023-05-21T23:54:07.033Z,15.46
2023-05-21T23:56:34.154Z,15.44
2023-05-21T23:59:01.130Z,15.40
